Time;durP1;ratioP1;P1;durP2;ratioP2;P2;SDS_P1;SDS_P2;PMS_P1;PMS_P2;Temp;Humidity;BMP_temperature;BMP_pressure;BME280_temperature;BME280_humidity;BME280_pressure;Samples;Min_cycle;Max_cycle;Signal;HPM_P1;HPM_P2
2023/12/15 00:00:18;;;;;;;3.20;1.67;;;1.00;99.90;;;;;;5049464;28;20026;-84
2023/12/15 00:02:45;;;;;;;2.40;1.27;;;1.00;99.90;;;;;;5044894;28;20056;-84
2023/12/15 00:05:11;;;;;;;3.10;1.50;;;1.00;99.90;;;;;;5055607;28;20033;-84
2023/12/15 00:07:37;;;;;;;3.13;1.63;;;1.10;99.90;;;;;;5025422;28;20036;-84
2023/12/15 00:10:03;;;;;;;2.20;1.15;;;1.00;99.90;;;;;;5043906;28;20389;-83
2023/12/15 00:12:28;;;;;;;1.65;0.88;;;1.10;99.90;;;;;;5051209;28;20071;-83
2023/12/15 00:14:54;;;;;;;1.85;1.13;;;1.10;99.90;;;;;;5042896;28;20022;-83
2023/12/15 00:17:20;;;;;;;2.13;1.08;;;1.10;99.90;;;;;;5055512;28;20575;-83
2023/12/15 00:19:46;;;;;;;3.17;1.67;;;1.10;99.90;;;;;;5052968;28;20511;-83
2023/12/15 00:22:11;;;;;;;2.92;1.60;;;1.10;99.90;;;;;;5053371;28;20037;-83
2023/12/15 00:24:37;;;;;;;3.22;1.92;;;1.10;99.90;;;;;;5038405;28;20053;-83
2023/12/15 00:27:03;;;;;;;2.38;1.30;;;1.10;99.90;;;;;;5019963;28;20397;-83
2023/12/15 00:29:28;;;;;;;3.20;1.60;;;1.10;99.90;;;;;;5036899;28;20048;-83
2023/12/15 00:31:54;;;;;;;2.25;1.40;;;1.10;99.90;;;;;;5036208;28;20033;-83
2023/12/15 00:34:20;;;;;;;2.92;1.55;;;1.10;99.90;;;;;;5020334;28;20030;-83
2023/12/15 00:36:45;;;;;;;3.65;1.90;;;1.10;99.90;;;;;;5020115;28;20389;-83
2023/12/15 00:39:11;;;;;;;4.72;2.50;;;1.10;99.90;;;;;;5055643;28;20048;-83
2023/12/15 00:41:37;;;;;;;3.58;2.00;;;1.10;99.90;;;;;;5073733;28;20117;-83
2023/12/15 00:44:03;;;;;;;3.67;2.00;;;1.10;99.90;;;;;;5057697;28;20091;-83
2023/12/15 00:46:29;;;;;;;4.50;1.92;;;1.10;99.90;;;;;;5061317;28;20036;-83
2023/12/15 00:48:55;;;;;;;3.13;1.65;;;1.10;99.90;;;;;;5076311;28;20029;-83
2023/12/15 00:51:20;;;;;;;3.80;2.00;;;1.10;99.90;;;;;;5049406;28;20018;-83
2023/12/15 00:53:46;;;;;;;3.55;1.63;;;1.10;99.90;;;;;;5019075;28;20080;-83
2023/12/15 00:56:12;;;;;;;4.07;1.33;;;1.10;99.90;;;;;;5049868;28;20055;-83
2023/12/15 00:58:37;;;;;;;2.40;1.30;;;1.10;99.90;;;;;;5013855;28;20485;-83
2023/12/15 01:01:03;;;;;;;1.80;1.00;;;1.00;99.90;;;;;;5048000;28;20040;-83
2023/12/15 01:03:30;;;;;;;1.83;1.00;;;1.00;99.90;;;;;;5041026;28;20438;-82
2023/12/15 01:05:56;;;;;;;2.30;0.93;;;1.00;99.90;;;;;;5041532;28;20053;-82
2023/12/15 01:08:22;;;;;;;2.03;0.95;;;1.00;99.90;;;;;;5024919;28;20064;-82
2023/12/15 01:10:48;;;;;;;1.83;1.02;;;1.00;99.90;;;;;;5051195;28;20477;-82
2023/12/15 01:13:14;;;;;;;2.10;1.33;;;1.00;99.90;;;;;;5045170;28;20033;-82
2023/12/15 01:15:40;;;;;;;2.53;1.50;;;1.00;99.90;;;;;;5036491;28;20030;-82
2023/12/15 01:18:06;;;;;;;3.03;1.60;;;1.00;99.90;;;;;;5035787;28;20392;-82
2023/12/15 01:20:31;;;;;;;3.60;1.50;;;1.00;99.90;;;;;;5043081;28;20029;-82
2023/12/15 01:22:57;;;;;;;3.28;1.70;;;1.00;99.90;;;;;;5059751;28;20036;-82
2023/12/15 01:25:23;;;;;;;2.40;1.50;;;1.00;99.90;;;;;;5076972;28;20043;-82
2023/12/15 01:27:48;;;;;;;2.50;1.20;;;0.90;99.90;;;;;;5058969;28;20029;-82
2023/12/15 01:30:14;;;;;;;1.63;1.10;;;0.90;99.90;;;;;;5077706;28;20024;-82
2023/12/15 01:32:40;;;;;;;2.40;1.23;;;0.90;99.90;;;;;;5075787;28;20029;-83
2023/12/15 01:35:06;;;;;;;2.60;1.40;;;0.90;99.90;;;;;;5075784;28;20052;-82
2023/12/15 01:37:32;;;;;;;2.70;1.48;;;1.00;99.90;;;;;;5076045;28;20039;-82
2023/12/15 01:39:57;;;;;;;6.32;2.80;;;1.00;99.90;;;;;;5067423;28;20393;-82
2023/12/15 01:42:24;;;;;;;4.18;2.33;;;1.00;99.90;;;;;;5056959;28;20039;-82
2023/12/15 01:44:50;;;;;;;4.85;2.63;;;1.00;99.90;;;;;;5072771;28;20024;-82
2023/12/15 01:47:18;;;;;;;3.03;1.98;;;1.00;99.90;;;;;;5082892;28;20031;-82
2023/12/15 01:49:47;;;;;;;3.85;2.05;;;1.00;99.90;;;;;;5077535;28;20506;-82
2023/12/15 01:52:14;;;;;;;3.50;1.95;;;1.00;99.90;;;;;;5076321;28;20029;-82
2023/12/15 01:54:39;;;;;;;4.13;2.20;;;0.90;99.90;;;;;;5076914;28;20438;-82
2023/12/15 01:57:06;;;;;;;4.10;2.50;;;0.90;99.90;;;;;;5076122;28;20025;-82
2023/12/15 01:59:46;;;;;;;5.75;2.97;;;0.90;99.90;;;;;;5076250;28;20028;-82
2023/12/15 02:02:12;;;;;;;5.07;2.50;;;0.90;99.90;;;;;;5064014;28;20029;-82
2023/12/15 02:04:39;;;;;;;3.45;1.80;;;0.80;99.90;;;;;;5059210;28;20079;-82
2023/12/15 02:07:04;;;;;;;2.67;1.60;;;0.80;99.90;;;;;;5066526;28;20083;-82
2023/12/15 02:09:30;;;;;;;3.28;1.40;;;0.90;99.90;;;;;;5025402;28;20089;-82
2023/12/15 02:11:56;;;;;;;2.50;1.70;;;0.90;99.90;;;;;;5074096;28;20551;-82
2023/12/15 02:14:22;;;;;;;2.55;1.38;;;0.90;99.90;;;;;;5074095;28;20051;-82
2023/12/15 02:16:48;;;;;;;3.35;1.52;;;0.90;99.90;;;;;;5063121;28;20515;-83
2023/12/15 02:19:13;;;;;;;2.75;1.55;;;0.90;99.90;;;;;;5060434;28;20032;-82
2023/12/15 02:21:39;;;;;;;2.67;1.40;;;0.90;99.90;;;;;;5044458;28;20036;-82
2023/12/15 02:24:05;;;;;;;2.10;1.08;;;0.90;99.90;;;;;;5050095;28;20068;-82
2023/12/15 02:26:30;;;;;;;2.40;1.30;;;0.90;99.90;;;;;;5052755;28;20025;-82
2023/12/15 02:28:56;;;;;;;2.90;1.25;;;1.00;99.90;;;;;;5035127;28;20421;-82
2023/12/15 02:31:22;;;;;;;3.33;1.98;;;0.90;99.90;;;;;;5039986;28;20029;-82
2023/12/15 02:33:48;;;;;;;3.67;2.03;;;0.90;99.90;;;;;;5059796;28;20389;-82
2023/12/15 02:36:23;;;;;;;3.47;2.15;;;0.90;99.90;;;;;;5038781;28;20030;-82
2023/12/15 02:38:52;;;;;;;3.28;1.85;;;0.90;99.90;;;;;;5053086;28;20032;-82
2023/12/15 02:41:21;;;;;;;3.80;2.20;;;0.80;99.90;;;;;;5019912;28;20032;-82
2023/12/15 02:43:46;;;;;;;3.92;2.20;;;0.90;99.90;;;;;;5003218;28;20029;-82
2023/12/15 02:46:12;;;;;;;4.93;3.00;;;0.90;99.90;;;;;;5042332;28;20029;-83
2023/12/15 02:48:38;;;;;;;3.90;2.40;;;0.90;99.90;;;;;;5055193;28;20497;-82
2023/12/15 02:51:03;;;;;;;5.20;3.15;;;0.90;99.90;;;;;;5014117;28;20385;-83
2023/12/15 02:53:29;;;;;;;5.50;3.00;;;0.90;99.90;;;;;;5016257;28;20473;-83
2023/12/15 02:55:55;;;;;;;5.88;3.33;;;0.90;99.90;;;;;;5055971;28;20067;-83
2023/12/15 02:58:20;;;;;;;4.40;3.10;;;0.90;99.90;;;;;;5040189;28;20029;-82
2023/12/15 03:00:49;;;;;;;4.63;2.92;;;0.90;99.90;;;;;;5057833;28;20025;-82
2023/12/15 03:03:15;;;;;;;5.57;3.42;;;0.90;99.90;;;;;;5051168;28;20095;-82
2023/12/15 03:05:40;;;;;;;5.80;3.40;;;0.90;99.90;;;;;;5025425;28;20498;-83
2023/12/15 03:08:07;;;;;;;5.60;3.38;;;0.90;99.90;;;;;;5039321;28;20053;-82
2023/12/15 03:10:33;;;;;;;6.15;3.45;;;0.90;99.90;;;;;;5040493;28;20091;-82
2023/12/15 03:12:58;;;;;;;9.00;4.43;;;0.80;99.90;;;;;;5015436;28;20061;-82
2023/12/15 03:15:26;;;;;;;5.38;3.20;;;0.80;99.90;;;;;;5035813;28;20397;-82
2023/12/15 03:17:51;;;;;;;3.65;2.05;;;0.90;99.90;;;;;;5029045;28;20040;-82
2023/12/15 03:20:17;;;;;;;3.65;2.20;;;0.80;99.90;;;;;;5042365;28;20401;-83
2023/12/15 03:22:43;;;;;;;4.53;2.58;;;0.80;99.90;;;;;;5037618;28;20037;-82
2023/12/15 03:25:09;;;;;;;10.77;5.00;;;0.80;99.90;;;;;;5049097;28;20025;-83
2023/12/15 03:27:35;;;;;;;11.73;5.47;;;0.80;99.90;;;;;;5038944;28;20045;-83
2023/12/15 03:30:00;;;;;;;9.52;4.60;;;0.80;99.90;;;;;;5049260;28;20025;-83
2023/12/15 03:32:26;;;;;;;6.82;4.15;;;0.80;99.90;;;;;;5040276;28;20164;-83
2023/12/15 03:34:51;;;;;;;10.63;5.40;;;0.80;99.90;;;;;;5031445;28;20025;-83
2023/12/15 03:37:17;;;;;;;8.48;4.70;;;0.80;99.90;;;;;;5058914;28;20445;-84
2023/12/15 03:39:43;;;;;;;7.90;3.75;;;0.80;99.90;;;;;;5020137;28;20034;-83
2023/12/15 03:42:10;;;;;;;6.78;3.00;;;0.90;99.90;;;;;;5050017;28;20033;-83
2023/12/15 03:44:36;;;;;;;5.03;2.85;;;0.90;99.90;;;;;;5035772;28;20032;-84
2023/12/15 03:47:03;;;;;;;4.07;2.75;;;0.80;99.90;;;;;;5013717;28;20029;-84
2023/12/15 03:49:28;;;;;;;4.05;2.45;;;0.90;99.90;;;;;;5035981;28;20117;-83
2023/12/15 03:51:54;;;;;;;7.07;3.85;;;0.80;99.90;;;;;;5037037;28;20053;-84
2023/12/15 03:54:20;;;;;;;7.05;3.53;;;0.80;99.90;;;;;;5037009;28;20032;-83
2023/12/15 03:56:45;;;;;;;7.05;3.42;;;0.80;99.90;;;;;;5044105;28;20108;-83
2023/12/15 03:59:11;;;;;;;4.75;2.75;;;0.80;99.90;;;;;;5029661;28;20037;-83
2023/12/15 04:01:37;;;;;;;6.00;3.30;;;0.80;99.90;;;;;;5041879;28;20396;-83
2023/12/15 04:04:02;;;;;;;6.00;3.47;;;0.80;99.90;;;;;;5066926;28;20548;-83
2023/12/15 04:06:28;;;;;;;7.20;4.50;;;0.80;99.90;;;;;;5054217;28;20025;-83
2023/12/15 04:08:54;;;;;;;7.63;3.90;;;0.80;99.90;;;;;;5037175;28;20482;-84
2023/12/15 04:11:19;;;;;;;6.55;3.83;;;0.80;99.90;;;;;;5040192;28;20160;-83
2023/12/15 04:13:45;;;;;;;8.65;4.57;;;0.80;99.90;;;;;;5056585;28;20029;-84
2023/12/15 04:16:11;;;;;;;7.88;4.55;;;0.80;99.90;;;;;;5069870;28;20029;-83
2023/12/15 04:18:37;;;;;;;9.93;5.22;;;0.80;99.90;;;;;;5058043;28;20025;-86
2023/12/15 04:21:03;;;;;;;8.98;5.65;;;0.80;99.90;;;;;;5047592;28;20033;-83
2023/12/15 04:23:30;;;;;;;8.40;4.68;;;0.90;99.90;;;;;;5048674;28;20033;-83
2023/12/15 04:25:58;;;;;;;12.75;5.78;;;0.90;99.90;;;;;;5056516;28;20090;-83
2023/12/15 04:28:25;;;;;;;8.40;4.88;;;0.90;99.90;;;;;;5054871;28;20037;-83
2023/12/15 04:30:51;;;;;;;9.68;5.20;;;0.90;99.90;;;;;;5055884;28;20029;-83
2023/12/15 04:33:17;;;;;;;7.30;4.45;;;0.90;99.90;;;;;;5047467;28;20074;-83
2023/12/15 04:35:42;;;;;;;7.15;4.60;;;0.80;99.90;;;;;;5058805;28;20025;-82
2023/12/15 04:38:09;;;;;;;10.35;5.72;;;0.80;99.90;;;;;;5030716;28;20030;-84
2023/12/15 04:40:35;;;;;;;10.45;5.55;;;0.80;99.90;;;;;;5030758;28;20037;-83
2023/12/15 04:43:00;;;;;;;10.30;5.82;;;0.80;99.90;;;;;;5047520;28;20029;-83
2023/12/15 04:45:26;;;;;;;12.00;6.00;;;0.80;99.90;;;;;;5011595;28;20036;-84
2023/12/15 04:47:54;;;;;;;11.45;6.88;;;0.80;99.90;;;;;;5060181;28;20025;-84
2023/12/15 04:50:22;;;;;;;11.27;6.18;;;0.80;99.90;;;;;;5050874;28;20021;-83
2023/12/15 04:52:47;;;;;;;13.07;7.03;;;0.80;99.90;;;;;;5053326;28;20033;-83
2023/12/15 04:55:13;;;;;;;11.80;6.15;;;0.80;99.90;;;;;;5043790;28;20040;-84
2023/12/15 04:57:38;;;;;;;11.30;6.65;;;0.70;99.90;;;;;;5065615;28;20060;-84
2023/12/15 05:00:07;;;;;;;15.80;8.05;;;0.70;99.90;;;;;;5055634;28;20512;-83
2023/12/15 05:02:33;;;;;;;11.45;6.65;;;0.70;99.90;;;;;;5055480;28;20047;-82
2023/12/15 05:04:58;;;;;;;13.48;7.45;;;0.80;99.90;;;;;;5049655;28;20537;-83
2023/12/15 05:07:24;;;;;;;15.70;8.73;;;0.80;99.90;;;;;;5024052;28;20366;-83
2023/12/15 05:09:49;;;;;;;15.68;9.13;;;0.80;99.90;;;;;;5062249;28;20026;-83
2023/12/15 05:12:15;;;;;;;17.75;10.35;;;0.80;99.90;;;;;;5045195;28;20030;-83
2023/12/15 05:14:41;;;;;;;13.75;7.35;;;0.80;99.90;;;;;;5018718;28;20029;-83
2023/12/15 05:17:06;;;;;;;10.10;5.88;;;0.80;99.90;;;;;;5045258;28;20530;-83
2023/12/15 05:19:32;;;;;;;8.32;5.60;;;0.80;99.90;;;;;;5036042;28;20060;-83
2023/12/15 05:21:58;;;;;;;9.02;5.28;;;0.80;99.90;;;;;;5052406;28;20102;-83
2023/12/15 05:24:23;;;;;;;7.70;4.78;;;0.80;99.90;;;;;;5052497;28;20357;-83
2023/12/15 05:26:49;;;;;;;7.43;5.10;;;0.80;99.90;;;;;;5053638;28;20072;-83
2023/12/15 05:29:15;;;;;;;9.68;6.18;;;0.80;99.90;;;;;;5019101;28;20033;-82
2023/12/15 05:31:44;;;;;;;8.32;4.68;;;0.80;99.90;;;;;;5048105;28;20119;-83
2023/12/15 05:34:09;;;;;;;7.43;4.35;;;0.80;99.90;;;;;;5034884;28;20025;-82
2023/12/15 05:36:35;;;;;;;21.75;11.88;;;0.80;99.90;;;;;;5061633;28;20108;-82
2023/12/15 05:39:01;;;;;;;16.15;9.13;;;0.80;99.90;;;;;;5037089;28;20080;-82
2023/12/15 05:41:27;;;;;;;15.38;8.52;;;0.80;99.90;;;;;;5055655;28;20029;-82
2023/12/15 05:43:53;;;;;;;9.27;5.80;;;0.80;99.90;;;;;;5055366;28;20036;-82
2023/12/15 05:46:20;;;;;;;6.68;3.85;;;0.80;99.90;;;;;;5057168;28;20021;-82
2023/12/15 05:48:46;;;;;;;9.85;5.93;;;0.80;99.90;;;;;;5058826;28;20028;-82
2023/12/15 05:51:11;;;;;;;8.40;5.00;;;0.80;99.90;;;;;;5058334;28;20025;-82
2023/12/15 05:53:37;;;;;;;9.55;5.20;;;0.80;99.90;;;;;;5074804;28;20028;-82
2023/12/15 05:56:03;;;;;;;10.15;5.53;;;0.80;99.90;;;;;;5074800;28;20109;-82
2023/12/15 05:58:29;;;;;;;7.45;4.50;;;0.80;99.90;;;;;;5058074;28;20049;-82
2023/12/15 06:00:55;;;;;;;8.63;4.40;;;0.80;99.90;;;;;;5041670;28;20025;-82
2023/12/15 06:03:21;;;;;;;7.13;4.05;;;0.80;99.90;;;;;;5057722;28;20028;-82
2023/12/15 06:05:46;;;;;;;6.55;3.97;;;0.70;99.90;;;;;;5074443;28;20067;-83
2023/12/15 06:08:13;;;;;;;6.43;3.72;;;0.80;99.90;;;;;;5074440;28;20031;-82
2023/12/15 06:10:40;;;;;;;4.57;2.97;;;0.80;99.90;;;;;;5059567;28;20025;-83
2023/12/15 06:13:06;;;;;;;9.90;5.03;;;0.80;99.90;;;;;;5055932;28;20122;-82
2023/12/15 06:15:32;;;;;;;9.50;5.50;;;0.70;99.90;;;;;;5037638;28;20485;-83
2023/12/15 06:17:57;;;;;;;12.45;6.75;;;0.80;99.90;;;;;;5086216;28;20071;-83
2023/12/15 06:20:23;;;;;;;17.83;8.77;;;0.70;99.90;;;;;;5074071;28;20063;-82
2023/12/15 06:22:51;;;;;;;15.20;7.20;;;0.80;99.90;;;;;;5074028;28;20072;-82
2023/12/15 06:25:17;;;;;;;13.68;7.88;;;0.80;99.90;;;;;;5074059;28;20117;-82
2023/12/15 06:27:42;;;;;;;13.20;6.60;;;0.80;99.90;;;;;;5075394;28;20063;-82
2023/12/15 06:30:08;;;;;;;10.75;5.47;;;0.80;99.90;;;;;;5057349;28;20025;-83
2023/12/15 06:32:35;;;;;;;8.00;4.68;;;0.80;99.90;;;;;;5057916;28;20090;-83
2023/12/15 06:35:00;;;;;;;10.93;4.90;;;0.80;99.90;;;;;;5073676;28;20480;-83
2023/12/15 06:37:26;;;;;;;10.63;5.60;;;0.80;99.90;;;;;;5057022;28;20082;-83
2023/12/15 06:39:52;;;;;;;8.52;5.18;;;0.80;99.90;;;;;;5065817;28;20158;-82
2023/12/15 06:42:18;;;;;;;8.73;5.30;;;0.80;99.90;;;;;;5037249;28;20067;-82
2023/12/15 06:44:43;;;;;;;8.65;4.82;;;0.80;99.90;;;;;;5070514;28;20469;-83
2023/12/15 06:47:09;;;;;;;4.38;2.60;;;0.80;99.90;;;;;;5062682;28;20473;-83
2023/12/15 06:49:35;;;;;;;8.30;4.30;;;0.90;99.90;;;;;;5056815;28;20032;-82
2023/12/15 06:52:00;;;;;;;8.20;4.90;;;1.00;99.90;;;;;;5057226;28;20027;-83
2023/12/15 06:54:26;;;;;;;5.63;3.58;;;1.00;99.90;;;;;;5057107;28;20036;-83
2023/12/15 06:56:52;;;;;;;9.23;4.60;;;1.00;99.90;;;;;;5075022;28;20036;-83
2023/12/15 06:59:17;;;;;;;8.80;3.55;;;1.00;99.90;;;;;;5073202;28;20074;-83
2023/12/15 07:01:43;;;;;;;7.80;4.50;;;1.00;99.90;;;;;;5056784;28;20062;-83
2023/12/15 07:04:09;;;;;;;13.55;7.72;;;0.90;99.90;;;;;;5056828;28;20032;-83
2023/12/15 07:06:34;;;;;;;10.13;6.07;;;0.90;99.90;;;;;;5073372;28;20362;-82
2023/12/15 07:09:00;;;;;;;9.30;5.07;;;0.90;99.90;;;;;;5073597;28;20110;-83
2023/12/15 07:11:26;;;;;;;8.88;5.38;;;0.90;99.90;;;;;;5053311;28;20076;-83
2023/12/15 07:13:51;;;;;;;9.52;5.40;;;0.90;99.90;;;;;;5036778;28;20025;-83
2023/12/15 07:16:17;;;;;;;8.25;5.10;;;0.90;99.90;;;;;;5054738;28;20025;-83
2023/12/15 07:18:43;;;;;;;9.35;5.70;;;0.90;99.90;;;;;;5072883;28;20491;-83
2023/12/15 07:21:09;;;;;;;9.23;5.75;;;0.90;99.90;;;;;;5056463;28;20033;-83
2023/12/15 07:23:35;;;;;;;7.78;4.72;;;0.90;99.90;;;;;;5072500;28;20078;-82
2023/12/15 07:26:01;;;;;;;7.00;4.45;;;0.90;99.90;;;;;;5073126;28;20048;-83
2023/12/15 07:28:27;;;;;;;7.93;5.03;;;0.90;99.90;;;;;;5056600;28;20021;-83
2023/12/15 07:30:52;;;;;;;8.27;4.78;;;0.90;99.90;;;;;;5074733;28;20040;-83
2023/12/15 07:33:18;;;;;;;7.65;4.35;;;0.80;99.90;;;;;;5074333;28;20056;-82
2023/12/15 07:35:46;;;;;;;6.88;4.63;;;0.90;99.90;;;;;;5056304;28;20036;-82
2023/12/15 07:38:12;;;;;;;10.38;5.55;;;0.90;99.90;;;;;;5056601;28;20032;-83
2023/12/15 07:40:38;;;;;;;7.97;5.20;;;0.90;99.90;;;;;;5026176;28;20029;-83
2023/12/15 07:43:04;;;;;;;9.85;6.90;;;0.90;99.90;;;;;;5052960;28;20091;-83
2023/12/15 07:45:29;;;;;;;9.52;5.90;;;0.90;99.90;;;;;;5054687;28;20025;-83
2023/12/15 07:47:56;;;;;;;7.13;4.60;;;0.90;99.90;;;;;;5067465;28;20032;-82
2023/12/15 07:50:22;;;;;;;9.30;5.18;;;0.90;99.90;;;;;;5056793;28;20036;-83
2023/12/15 07:52:48;;;;;;;7.93;5.05;;;0.90;99.90;;;;;;5056128;28;20024;-83
2023/12/15 07:55:14;;;;;;;9.93;6.35;;;0.90;99.90;;;;;;5056393;28;20081;-83
2023/12/15 07:57:39;;;;;;;7.00;4.80;;;1.00;99.90;;;;;;5056431;28;20420;-83
2023/12/15 08:00:11;;;;;;;8.00;5.00;;;1.00;99.90;;;;;;5073048;28;20031;-83
2023/12/15 08:02:36;;;;;;;11.13;7.18;;;1.00;99.90;;;;;;5072599;28;20032;-83
2023/12/15 08:05:02;;;;;;;9.60;6.35;;;1.00;99.90;;;;;;5055850;28;20530;-82
2023/12/15 08:07:28;;;;;;;9.35;6.20;;;1.00;99.90;;;;;;5072490;28;20024;-82
2023/12/15 08:09:53;;;;;;;11.68;6.75;;;1.00;99.90;;;;;;5047827;28;20396;-82
2023/12/15 08:12:19;;;;;;;45.25;15.75;;;1.00;99.90;;;;;;5069405;28;20377;-83
2023/12/15 08:14:45;;;;;;;18.02;9.02;;;1.00;99.90;;;;;;5054095;28;20037;-83
2023/12/15 08:17:10;;;;;;;20.85;11.55;;;1.00;99.90;;;;;;5061601;28;20476;-83
2023/12/15 08:19:36;;;;;;;17.15;9.27;;;1.00;99.90;;;;;;5055447;28;20063;-82
2023/12/15 08:22:02;;;;;;;10.50;6.05;;;1.00;99.90;;;;;;5072456;28;20496;-83
2023/12/15 08:24:28;;;;;;;14.27;5.75;;;1.10;99.90;;;;;;5072482;28;20028;-83
2023/12/15 08:26:54;;;;;;;9.30;5.38;;;1.00;99.90;;;;;;5056122;28;20078;-82
2023/12/15 08:29:20;;;;;;;9.68;5.18;;;1.00;99.90;;;;;;5055759;28;20033;-83
2023/12/15 08:31:46;;;;;;;9.60;5.75;;;1.00;99.90;;;;;;5055603;28;20028;-83
2023/12/15 08:34:12;;;;;;;11.90;6.88;;;1.10;99.90;;;;;;5073048;28;20128;-82
2023/12/15 08:36:38;;;;;;;12.75;6.65;;;1.10;99.90;;;;;;5075830;28;20055;-83
2023/12/15 08:39:04;;;;;;;7.97;5.47;;;1.00;99.90;;;;;;5074394;28;20485;-82
2023/12/15 08:41:30;;;;;;;9.93;5.95;;;1.10;99.90;;;;;;5072821;28;20025;-82
2023/12/15 08:43:56;;;;;;;11.40;6.35;;;1.10;99.90;;;;;;5055683;28;20051;-83
2023/12/15 08:46:22;;;;;;;8.45;5.55;;;1.10;99.90;;;;;;5058028;28;20030;-82
2023/12/15 08:48:49;;;;;;;9.60;5.85;;;1.10;99.90;;;;;;5077041;28;20480;-82
2023/12/15 08:51:16;;;;;;;9.40;5.50;;;1.10;99.90;;;;;;5075627;28;20058;-82
2023/12/15 08:53:42;;;;;;;8.52;5.28;;;1.10;99.90;;;;;;5076084;28;20033;-82
2023/12/15 08:56:07;;;;;;;7.70;5.10;;;1.10;99.90;;;;;;5075784;28;20078;-83
2023/12/15 08:58:33;;;;;;;8.90;4.65;;;1.20;99.90;;;;;;5059003;28;20028;-83
2023/12/15 09:00:59;;;;;;;7.15;4.13;;;1.20;99.90;;;;;;5042872;28;20075;-83
2023/12/15 09:03:24;;;;;;;7.30;4.30;;;1.10;99.90;;;;;;5058862;28;20051;-82
2023/12/15 09:05:50;;;;;;;6.70;4.38;;;1.10;99.90;;;;;;5059791;28;20127;-83
2023/12/15 09:08:16;;;;;;;11.73;6.10;;;1.10;99.90;;;;;;5059665;28;20021;-83
2023/12/15 09:10:45;;;;;;;11.48;6.65;;;1.10;99.90;;;;;;5028040;28;20119;-83
2023/12/15 09:13:11;;;;;;;9.13;5.43;;;1.10;99.90;;;;;;5040201;28;20021;-83
2023/12/15 09:15:37;;;;;;;8.80;5.57;;;1.10;99.90;;;;;;5072458;28;20040;-82
2023/12/15 09:18:02;;;;;;;11.38;5.95;;;1.10;99.90;;;;;;5054541;28;20033;-82
2023/12/15 09:20:28;;;;;;;10.15;5.43;;;1.10;99.90;;;;;;5058081;28;20036;-82
2023/12/15 09:22:57;;;;;;;9.40;5.50;;;1.20;99.90;;;;;;5075453;28;20040;-82
2023/12/15 09:25:22;;;;;;;8.57;5.18;;;1.20;99.90;;;;;;5059106;28;20060;-82
2023/12/15 09:27:48;;;;;;;7.93;3.97;;;1.20;99.90;;;;;;5076564;28;20079;-82
2023/12/15 09:30:14;;;;;;;6.13;3.70;;;1.20;99.90;;;;;;5042358;28;20028;-83
2023/12/15 09:32:39;;;;;;;7.43;4.00;;;1.20;99.90;;;;;;5058290;28;20028;-82
2023/12/15 09:35:06;;;;;;;6.35;3.72;;;1.20;99.90;;;;;;5058440;28;20463;-82
2023/12/15 09:37:32;;;;;;;8.25;4.43;;;1.20;99.90;;;;;;5058328;28;20051;-82
2023/12/15 09:39:57;;;;;;;7.43;4.43;;;1.20;99.90;;;;;;5049416;28;20532;-82
2023/12/15 09:42:23;;;;;;;6.97;4.20;;;1.20;99.90;;;;;;5054873;28;20059;-82
2023/12/15 09:44:50;;;;;;;7.85;4.75;;;1.20;99.90;;;;;;5054768;28;20036;-82
2023/12/15 09:47:20;;;;;;;8.75;4.72;;;1.20;99.90;;;;;;5065027;28;20480;-82
2023/12/15 09:49:52;;;;;;;7.53;4.15;;;1.20;99.90;;;;;;5076326;28;20461;-82
2023/12/15 09:52:20;;;;;;;7.78;3.72;;;1.20;99.90;;;;;;5075952;28;20021;-82
2023/12/15 09:54:48;;;;;;;9.00;3.33;;;1.20;99.90;;;;;;5074864;28;20484;-82
2023/12/15 09:57:14;;;;;;;5.22;3.33;;;1.20;99.90;;;;;;5075696;28;20119;-82
2023/12/15 09:59:42;;;;;;;7.10;3.42;;;1.30;99.90;;;;;;5075700;28;20056;-82
2023/12/15 10:02:08;;;;;;;5.95;3.58;;;1.30;99.90;;;;;;5075854;28;20024;-82
2023/12/15 10:04:33;;;;;;;5.53;3.17;;;1.40;99.90;;;;;;5057654;28;20032;-83
2023/12/15 10:06:59;;;;;;;6.63;3.80;;;1.40;99.90;;;;;;5075928;28;20029;-82
2023/12/15 10:09:25;;;;;;;8.80;4.72;;;1.50;99.90;;;;;;5071152;28;20029;-82
2023/12/15 10:11:50;;;;;;;7.28;4.13;;;1.50;99.90;;;;;;5037878;28;20052;-83
2023/12/15 10:14:19;;;;;;;7.60;3.67;;;1.50;99.90;;;;;;5071119;28;20424;-82
2023/12/15 10:16:46;;;;;;;4.97;3.30;;;1.50;99.90;;;;;;5059338;28;20031;-82
2023/12/15 10:19:11;;;;;;;5.82;3.58;;;1.60;99.90;;;;;;5057002;28;20500;-82
2023/12/15 10:21:37;;;;;;;5.88;3.22;;;1.60;99.90;;;;;;5073872;28;20124;-82
2023/12/15 10:24:24;;;;;;;9.35;5.20;;;1.60;99.90;;;;;;5073964;28;20028;-82
2023/12/15 10:26:50;;;;;;;7.97;4.45;;;1.60;99.90;;;;;;5074000;28;20056;-82
2023/12/15 10:29:20;;;;;;;10.35;4.75;;;1.60;99.90;;;;;;5057298;28;20063;-82
2023/12/15 10:31:49;;;;;;;8.40;4.15;;;1.60;99.90;;;;;;5057304;28;20051;-82
2023/12/15 10:34:15;;;;;;;6.55;3.88;;;1.60;99.90;;;;;;5075005;28;20033;-83
2023/12/15 10:36:45;;;;;;;10.15;4.18;;;1.60;99.90;;;;;;5075013;28;20040;-82
2023/12/15 10:39:13;;;;;;;8.50;3.13;;;1.60;99.90;;;;;;5072773;28;20024;-82
2023/12/15 10:41:39;;;;;;;5.88;2.65;;;1.60;99.90;;;;;;5053711;28;20455;-82
2023/12/15 10:44:06;;;;;;;5.18;2.85;;;1.60;99.90;;;;;;5053747;28;21904;-82
2023/12/15 10:46:33;;;;;;;4.60;2.63;;;1.60;99.90;;;;;;5057340;28;20534;-82
2023/12/15 10:48:59;;;;;;;3.85;2.50;;;1.60;99.90;;;;;;5073709;28;20029;-82
2023/12/15 10:51:26;;;;;;;5.53;2.80;;;1.60;99.90;;;;;;5073650;28;20158;-82
2023/12/15 10:53:56;;;;;;;3.78;2.55;;;1.60;99.90;;;;;;5075008;28;20024;-82
2023/12/15 10:56:23;;;;;;;7.30;3.00;;;1.60;99.90;;;;;;5057933;28;20017;-82
2023/12/15 10:58:49;;;;;;;4.35;2.60;;;1.60;99.90;;;;;;5074287;28;20025;-82
2023/12/15 11:01:16;;;;;;;4.93;2.75;;;1.60;99.90;;;;;;5074617;28;20027;-82
2023/12/15 11:03:43;;;;;;;4.80;3.10;;;1.60;99.90;;;;;;5073466;28;20028;-82
2023/12/15 11:06:10;;;;;;;6.28;3.28;;;1.60;99.90;;;;;;5057967;28;20462;-80
2023/12/15 11:08:35;;;;;;;7.20;4.55;;;1.60;99.90;;;;;;5077157;28;20017;-80
2023/12/15 11:11:07;;;;;;;6.53;3.88;;;1.60;99.90;;;;;;5058835;28;20564;-80
2023/12/15 11:13:53;;;;;;;6.95;3.60;;;1.60;99.90;;;;;;5055646;28;20048;-80
2023/12/15 11:16:22;;;;;;;6.97;3.80;;;1.60;99.90;;;;;;5058865;28;20116;-81
2023/12/15 11:18:51;;;;;;;7.95;4.38;;;1.60;99.90;;;;;;5075393;28;20028;-80
2023/12/15 11:21:18;;;;;;;10.18;5.68;;;1.60;99.90;;;;;;5075979;28;20484;-81
2023/12/15 11:23:50;;;;;;;8.25;4.57;;;1.60;99.90;;;;;;5075956;28;20036;-80
2023/12/15 11:26:22;;;;;;;5.03;2.88;;;1.60;99.90;;;;;;5075739;28;20032;-80
2023/12/15 11:28:48;;;;;;;6.70;3.13;;;1.60;99.90;;;;;;5075498;28;20158;-80
2023/12/15 11:31:25;;;;;;;21.15;7.65;;;1.50;99.90;;;;;;5059220;28;20032;-80
2023/12/15 11:33:50;;;;;;;23.35;9.77;;;1.50;99.90;;;;;;5059577;28;20035;-80
2023/12/15 11:36:16;;;;;;;19.20;8.82;;;1.50;99.90;;;;;;5076814;28;20113;-80
2023/12/15 11:38:48;;;;;;;16.02;7.88;;;1.50;99.90;;;;;;5075572;28;20033;-80
2023/12/15 11:41:15;;;;;;;7.25;3.85;;;1.50;99.90;;;;;;5056911;28;20021;-80
2023/12/15 11:43:43;;;;;;;5.13;3.60;;;1.50;99.90;;;;;;5055544;28;20025;-80
2023/12/15 11:46:12;;;;;;;6.72;4.15;;;1.60;99.90;;;;;;5057324;28;20036;-81
2023/12/15 11:48:39;;;;;;;6.93;4.65;;;1.60;99.90;;;;;;5075629;28;20439;-81
2023/12/15 11:51:05;;;;;;;7.28;3.88;;;1.60;99.90;;;;;;5059040;28;20029;-81
2023/12/15 11:53:32;;;;;;;9.10;5.38;;;1.60;99.90;;;;;;5077023;28;20092;-80
2023/12/15 11:56:01;;;;;;;8.55;5.57;;;1.60;99.90;;;;;;5077174;28;20028;-80
2023/12/15 11:58:27;;;;;;;5.70;4.20;;;1.60;99.90;;;;;;5059056;28;20389;-80
2023/12/15 12:00:53;;;;;;;7.07;4.18;;;1.60;99.90;;;;;;5077202;28;20025;-80
2023/12/15 12:03:19;;;;;;;7.57;4.22;;;1.70;99.90;;;;;;5076473;28;20028;-80
2023/12/15 12:05:47;;;;;;;7.00;4.18;;;1.70;99.90;;;;;;5039657;28;20021;-81
2023/12/15 12:08:14;;;;;;;7.18;4.30;;;1.70;99.90;;;;;;5046138;28;20021;-80
2023/12/15 12:10:41;;;;;;;7.30;4.13;;;1.70;99.90;;;;;;5037583;28;20071;-80
2023/12/15 12:13:07;;;;;;;6.55;4.38;;;1.70;99.90;;;;;;5060538;28;20477;-80
2023/12/15 12:15:47;;;;;;;6.57;4.10;;;1.70;99.90;;;;;;5055114;28;20026;-81
2023/12/15 12:18:12;;;;;;;6.22;3.67;;;1.70;99.90;;;;;;5060751;28;20020;-80
2023/12/15 12:20:41;;;;;;;5.63;3.28;;;1.70;99.90;;;;;;5059877;28;20104;-80
2023/12/15 12:23:07;;;;;;;6.53;3.95;;;1.70;99.90;;;;;;5059244;28;20396;-80
2023/12/15 12:25:32;;;;;;;7.85;4.45;;;1.70;99.90;;;;;;5059383;28;20029;-81
2023/12/15 12:27:58;;;;;;;6.40;3.38;;;1.70;99.90;;;;;;5076254;28;20591;-80
2023/12/15 12:30:24;;;;;;;6.65;2.72;;;1.70;99.90;;;;;;5057862;28;20029;-81
2023/12/15 12:32:49;;;;;;;8.20;5.47;;;1.70;99.90;;;;;;5034596;28;20022;-80
2023/12/15 12:35:15;;;;;;;12.00;5.57;;;1.70;99.90;;;;;;5060885;28;20041;-81
2023/12/15 12:37:41;;;;;;;7.47;3.83;;;1.60;99.90;;;;;;5051691;28;20029;-80
2023/12/15 12:40:08;;;;;;;6.15;3.63;;;1.60;99.90;;;;;;5054230;28;20124;-80
2023/12/15 12:42:33;;;;;;;12.05;7.35;;;1.60;99.90;;;;;;5063222;28;20033;-80
2023/12/15 12:44:59;;;;;;;13.93;9.00;;;1.60;99.90;;;;;;5064782;28;20089;-83
2023/12/15 12:47:28;;;;;;;4.30;2.63;;;1.60;99.90;;;;;;5061304;28;20033;-81
2023/12/15 12:49:54;;;;;;;4.22;2.45;;;1.60;99.90;;;;;;5052916;28;20110;-81